ADDS METAR Data INFO
IDs: Format: Raw Decoded Include TAF

Data at: 0840 UTC 21 Oct 2017

PAIW 210756Z AUTO 08016KT 10SM CLR M07/M10 A2935 RMK AO2 SNB26E36 SLP940 P0000 T10721100 FZRANO
PAIW 210656Z AUTO 08015KT 10SM SCT041 M06/M09 A2934 RMK AO2 PK WND 08027/0628 SLP937 T10611094 FZRANO
PAIW 210556Z AUTO 07014KT 10SM SCT039 M06/M09 A2933 RMK AO2 SLP934 60000 T10611094 11050 21067 53004 FZRANO
PAIW 210456Z AUTO 08017KT 10SM CLR M06/M09 A2932 RMK AO2 PK WND 08026/0444 SNE32 SLP931 P0000 T10561089 FZRANO
PAIW 210356Z AUTO 08014KT 9SM -SN FEW017 SCT030 BKN046 M06/M09 A2932 RMK AO2 SNB00 SLP930 P0000 T10611089 FZRANO
PAIW 210256Z AUTO 08014G20KT 10SM FEW024 SCT030 OVC045 M06/M08 A2932 RMK AO2 SLP930 60000 T10561083 52007 FZRANO
PAIW 210156Z AUTO 07010KT 10SM SCT041 M06/M09 A2931 RMK AO2 SNB29E41 SLP927 P0000 T10611089 FZRANO
PAIW 210056Z AUTO 07012KT 10SM FEW037 M06/M08 A2930 RMK AO2 SLP924 T10561083 FZRANO
PAIW 202356Z AUTO 08013KT 10SM FEW013 M05/M08 A2930 RMK AO2 SNE43 SLP922 P0000 60000 T10501078 11039 21056 51004 FZRANO
PAIW 202319Z AUTO 07015KT 9SM FEW011 BKN034 OVC043 M04/M07 A2929 RMK AO2 SNE18 P0000 FZRANO
PAIW 202310Z AUTO 06016KT 7SM -SN SCT011 BKN022 BKN032 M04/M07 A2929 RMK AO2 P0000 FZRANO
PAIW 202256Z AUTO 07013KT 9SM -SN BKN013 M04/M07 A2929 RMK AO2 SNB13E32B52 SLP920 P0000 T10391067 FZRANO
PAIW 202237Z AUTO 08014KT 10SM SCT013 BKN024 BKN031 M05/M07 A2929 RMK AO2 SNB13E32 P0000 FZRANO
PAIW 202156Z AUTO 08013KT 10SM FEW043 SCT055 SCT070 M05/M07 A2929 RMK AO2 SNB03E42 SLP918 P0000 T10501072 FZRANO
PAIW 202056Z AUTO 06007KT 10SM FEW023 BKN041 OVC050 M05/M07 A2928 RMK AO2 UPB43E54SNE43 SLP916 P0000 60000 T10501072 51005 FZRANO
PAIW 202051Z AUTO 07006KT 10SM UP FEW018 BKN041 OVC048 M05/M07 A2928 RMK AO2 UPB43SNE43 P0000 FZRANO
PAIW 202028Z AUTO 06009KT 4SM -SN BR SCT018 BKN025 OVC046 M05/M07 A2928 RMK AO2 P0000 FZRANO
PAIW 201956Z AUTO 06009KT 8SM -SN FEW027 BKN034 OVC055 M04/M07 A2927 RMK AO2 SNB49 SLP913 P0000 T10441072 FZRANO
PAIW 201856Z AUTO 09012KT 10SM FEW036 SCT048 BKN120 M05/M07 A2927 RMK AO2 SNB27E44 SLP912 P0000 T10501072 FZRANO
PAIW 201756Z AUTO 08015KT 10SM BKN044 M05/M07 A2927 RMK AO2 SLP913 60000 T10501072 11028 21050 51014 FZRANO
PAIW 201715Z AUTO 08017G22KT 10SM FEW009 BKN042 M05/M07 A2927 RMK AO2 FZRANO
PAIW 201656Z AUTO 07017G28KT 10SM BKN040 M03/M09 A2926 RMK AO2 PK WND 04029/1652 SLP911 T10331089 FZRANO
PAIW 201556Z AUTO 04024G29KT 10SM FEW039 SCT047 M03/M10 A2925 RMK AO2 PK WND 03032/1508 SLP905 T10331100 FZRANO
PAIW 201456Z AUTO 03025G33KT 10SM FEW030 SCT036 OVC085 M03/M08 A2923 RMK AO2 PK WND 04036/1406 UPE50 SLP900 P0000 60000 T10281083 53013 FZRANO
PAIW 201446Z AUTO 03026G34KT 8SM UP SCT030 BKN036 OVC080 M03/M07 A2923 RMK AO2 PK WND 04036/1406 P0000 FZRANO
PAIW 201412Z AUTO 04029G36KT 3SM UP BR BKN027 BKN035 OVC065 M03/M06 A2921 RMK AO2 PK WND 04036/1406 P0000 FZRANO
PAIW 201400Z AUTO 04029G36KT 2 1/2SM UP BR BKN029 BKN037 OVC060 M03/M06 A2921 RMK AO2 PK WND 03034/1357 VIS 1 3/4V4 P0000 FZRANO
PAIW 201356Z AUTO 03031G37KT 3SM UP BR SCT027 BKN036 OVC050 M03/M06 A2921 RMK AO2 PK WND 02042/1303 UPB47SNE17 SLP893 P0000 T10331056 FZRANO
PAIW 201327Z AUTO 03031G38KT 2SM BLSN BR FEW009 BKN033 OVC043 M04/M05 A2920 RMK AO2 PK WND 02042/1303 VIS 1 1/2V4 SNE17 P0000 FZRANO
PAIW 201314Z AUTO 03030G41KT 1 1/4SM -SN BR FEW004 BKN020 OVC045 M04/M05 A2920 RMK AO2 PK WND 02042/1303 P0000 FZRANO
PAIW 201304Z AUTO 02033G42KT 1 1/4SM -SN BR FEW004 BKN013 OVC040 M04/M05 A2919 RMK AO2 PK WND 02042/1303 P0000 FZRANO
PAIW 201256Z AUTO 01033G43KT 3/4SM -SN BR SCT004 BKN013 OVC028 M04/M05 A2919 RMK AO2 PK WND 01043/1250 UPB10E48SNE10B48 SLP887 P0000 T10391050 FZRANO
PAIW 201252Z AUTO 01036G43KT 3/4SM -SN BR SCT004 BKN013 OVC026 M04/M05 A2920 RMK AO2 PK WND 01043/1250 UPB10E48SNE10B48 P0000 FZRANO
PAIW 201248Z AUTO 01034G39KT 1SM -SN BR FEW004 BKN015 BKN025 M03/M05 A2920 RMK AO2 PK WND 01039/1245 UPB10E48SNE10B48 P0000 FZRANO
PAIW 201243Z AUTO 01031G38KT 1 1/4SM UP BR FEW012 BKN022 BKN035 M03/M04 A2920 RMK AO2 PK WND 01038/1243 UPB10SNE10 P0000 FZRANO
PAIW 201233Z AUTO 02030G36KT 2SM UP BR BKN023 BKN090 M03/M05 A2919 RMK AO2 PK WND 01036/1233 VIS 1 1/2V4 UPB10SNE10 P0000 FZRANO
PAIW 201224Z AUTO 01026G32KT 2SM UP BR SCT021 BKN038 OVC110 M03/M05 A2919 RMK AO2 PK WND 01032/1222 VIS 1 1/2V4 UPB10SNE10 P0000 FZRANO
PAIW 201215Z AUTO 01024G30KT 3SM UP BR SCT021 BKN036 OVC095 M03/M04 A2919 RMK AO2 PK WND 36030/1213 UPB10SNE10 P0000 FZRANO
PAIW 201205Z AUTO 36026G30KT 1 3/4SM -SN BR FEW023 BKN035 BKN048 M03/M05 A2919 RMK AO2 PK WND 36030/1204 P0000 FZRANO
PAIW 201156Z AUTO 02021G26KT 8SM -SN FEW024 BKN035 BKN042 M04/M06 A2919 RMK AO2 PK WND 02026/1156 SLP887 P0000 60000 70001 T10391056 11017 21044 56004 FZRANO
PAIW 201141Z AUTO 04008KT 9SM -SN SCT009 BKN024 BKN029 M04/M05 A2920 RMK AO2 P0000 FZRANO
PAIW 201128Z AUTO 04009KT 4SM -SN BR SCT005 BKN011 OVC031 M04/M05 A2920 RMK AO2 CIG 007V014 P0000 FZRANO
PAIW 201123Z AUTO 03008KT 2SM -SN BR BKN005 BKN015 OVC031 M04/M05 A2920 RMK AO2 CIG 004V010 P0000 FZRANO
PAIW 201107Z AUTO 03006KT 1SM -SN BR BKN005 BKN015 OVC032 M03/M05 A2919 RMK AO2 CIG 004V008 P0000 FZRANO
PAIW 201101Z AUTO 35011KT 1 3/4SM -SN BR SCT007 BKN018 OVC032 M03/M04 A2919 RMK AO2 CIG 014V026 P0000 FZRANO
PAIW 201056Z AUTO 32012KT 3SM -SN BR SCT013 BKN023 OVC032 M03/M05 A2919 RMK AO2 UPB04E11SNE04B23 SLP887 P0000 T10281050 FZRANO
PAIW 201034Z AUTO 30006KT 4SM -SN BR FEW005 SCT021 BKN034 M03/M05 A2920 RMK AO2 UPB04E11SNE04B23 P0000 FZRANO
PAIW 201011Z AUTO 31015KT 10SM FEW013 SCT020 M03/M06 A2920 RMK AO2 UPB04E11SNE04 P0000 FZRANO
PAIW 201003Z AUTO 32013G23KT 9SM -SN SCT013 BKN019 M03/M06 A2920 RMK AO2 P0000 FZRANO
PAIW 200956Z AUTO 32019G27KT 7SM -SN FEW008 BKN013 OVC024 M03/M04 A2920 RMK AO2 PK WND 30028/0900 UPB03E09SNE03B09 SLP890 P0000 T10281044 FZRANO
PAIW 200930Z AUTO 30012KT 10SM FEW009 BKN022 BKN044 M03/M05 A2922 RMK AO2 PK WND 30028/0900 UPB03E09SNE03B09E20 P0000 FZRANO
PAIW 200910Z AUTO 31020KT 4SM -SN BR SCT010 BKN017 BKN027 M03/M04 A2923 RMK AO2 PK WND 30028/0900 UPB03E09SNE03B09 P0000 FZRANO
PAIW 200902Z AUTO 30024KT 6SM -SN BR FEW008 SCT011 BKN110 M03/M04 A2923 RMK AO2 PK WND 30028/0900 P0000 FZRANO
PAIW 200856Z AUTO 31024KT 8SM -SN FEW011 SCT027 M02/M05 A2923 RMK AO2 PK WND 31028/0856 UPB20E25SNE20B54 SLP899 P0000 60000 T10221050 400001039 56024 FZRANO
PAIW 200756Z AUTO 29021KT 9SM -SN BKN016 OVC075 M03/M05 A2925 RMK AO2 PK WND 30038/0733 UPB0657E06SNE0657B46 SLP906 P0000 T10281050 FZRANO
PAIW 200745Z AUTO 30026G32KT 8SM BKN018 BKN110 M02/M04 A2925 RMK AO2 PK WND 30038/0733 UPB0657E06SNE0657 P0000 FZRANO
PAIW 200656Z AUTO 30026G35KT 6SM -SN SCT025 BKN037 OVC090 M02/M05 A2927 RMK AO2 PK WND 31035/0650 SLP912 P0000 T10221050 FZRANO
PAIW 200646Z AUTO 30027G30KT 8SM -SN SCT027 BKN044 BKN060 M02/M04 A2927 RMK AO2 PK WND 31031/0634 P0000 FZRANO
PAIW 200626Z AUTO 32020KT 6SM -SN BR FEW005 SCT011 BKN017 M03/M03 A2928 RMK AO2 PK WND 32027/0600 P0000 FZRANO
PAIW 200616Z AUTO 31014KT 2SM -SN BR BKN009 BKN017 OVC040 M03/M04 A2929 RMK AO2 PK WND 32027/0600 VIS 1V5 CIG 005V014 P0000 FZRANO
PAIW 200608Z AUTO 31019G26KT 2 1/2SM -SN BR SCT010 BKN017 OVC040 M03/M04 A2930 RMK AO2 PK WND 32027/0600 P0000 FZRANO
PAIW 200559Z AUTO 32021KT 4SM -SN BR BKN014 BKN026 OVC040 M03/M04 A2930 RMK AO2 PK WND 32026/0559 CIG 008V021 P0000 FZRANO
PAIW 200556Z AUTO 32023G33KT 3SM -SN BR SCT014 BKN026 OVC060 M03/M04 A2930 RMK AO2 PK WND 31036/0544 UPB43E51SNE43B51 SLP924 P0000 60000 T10281039 11017 21039 56020 FZRANO
PAIW 200551Z AUTO 32023G36KT 2SM -SN BR FEW009 BKN026 OVC065 M03/M04 A2930 RMK AO2 PK WND 31036/0544 VIS 1 1/2V5 UPB43E51SNE43B51 P0000 FZRANO
PAIW 200543Z AUTO 31031G35KT 3SM UP BR FEW006 BKN015 OVC043 M02/M03 A2930 RMK AO2 PK WND 32035/0541 UPB43SNE43 CIG 010V021 P0000 FZRANO
PAIW 200533Z AUTO 31021G30KT 6SM -SN BR SCT006 BKN013 OVC041 M03/M03 A2931 RMK AO2 PK WND 29034/0508 P0000 FZRANO
PAIW 200529Z AUTO 31026G30KT 2SM -SN BR SCT004 BKN008 OVC030 M02/M03 A2931 RMK AO2 PK WND 29034/0508 VIS 3/4V5 CIG 006V011 P0000 FZRANO
PAIW 200527Z AUTO 31024KT 1 1/4SM -SN BR BKN004 BKN012 OVC018 M03/M03 A2931 RMK AO2 PK WND 29034/0508 VIS 1/2V5 CIG 003V008 P0000 FZRANO
PAIW 200519Z AUTO 29026G31KT 3/4SM -SN BR BKN004 OVC010 M03/M03 A2931 RMK AO2 PK WND 29034/0508 CIG 003V007 P0000 FZRANO
PAIW 200513Z AUTO 29025G34KT 1/2SM SN FZFG SCT004 OVC008 M03/M04 A2932 RMK AO2 PK WND 29034/0508 CIG 006V011 P0000 FZRANO
PAIW 200509Z AUTO 28029G34KT 3/4SM -SN BR BKN006 OVC010 M03/M04 A2931 RMK AO2 PK WND 29034/0508 CIG 003V007 P0000 FZRANO
PAIW 200505Z AUTO 28020KT 1 1/4SM -SN BR BKN006 OVC010 M03/M04 A2932 RMK AO2 P0000 FZRANO
PAIW 200456Z AUTO 30017KT 1SM -SN BR BKN006 BKN010 OVC018 M03/M04 A2934 RMK AO2 PK WND 30034/0407 UPB20E26SNE20B26 SLP936 P0000 T10281039 FZRANO
PAIW 200451Z AUTO 28022KT 1 3/4SM -SN BR SCT006 BKN010 OVC020 M03/M04 A2933 RMK AO2 PK WND 30034/0407 UPB20E26SNE20B26 CIG 009V014 P0000 FZRANO
PAIW 200445Z AUTO 29021G25KT 2SM -SN BR BKN008 BKN020 OVC100 M03/M04 A2934 RMK AO2 PK WND 30034/0407 UPB20E26SNE20B26 CIG 005V011 P0000 FZRANO
PAIW 200438Z AUTO 29019G31KT 1 1/4SM -SN BR SCT006 BKN013 OVC100 M03/M05 A2935 RMK AO2 PK WND 30034/0407 UPB20E26SNE20B26 P0000 FZRANO
PAIW 200433Z AUTO 30025G32KT 2SM -SN BR FEW009 BKN021 OVC095 M03/M04 A2935 RMK AO2 PK WND 30034/0407 UPB20E26SNE20B26 CIG 014V035 P0000 FZRANO
PAIW 200405Z AUTO 29025G30KT 7SM -SN FEW010 BKN025 OVC065 M02/M05 A2935 RMK AO2 PK WND 29030/0401 CIG 018V033 P0000 FZRANO
PAIW 200400Z AUTO 30025G30KT 2SM -SN BR SCT010 BKN030 OVC065 M03/M05 A2935 RMK AO2 PK WND 29030/0358 P0000 FZRANO
PAIW 200356Z AUTO 29019KT 1 1/4SM -SN BR SCT010 BKN020 BKN032 M03/M05 A2936 RMK AO2 PK WND 31029/0348 UPB31E35B52E54SNB20E31B43E52B54 SLP943 P0000 T10281050 FZRANO
PAIW 200350Z AUTO 31024G28KT 1 3/4SM -SN FEW008 BKN032 OVC070 M02/M06 A2937 RMK AO2 PK WND 31029/0348 UPB31E35SNB20E31B43 P0000 FZRANO
PAIW 200256Z AUTO 34018G22KT 10SM FEW037 M03/M07 A2938 RMK AO2 PK WND 34030/0210 SNE01 SLP952 P0000 60000 T10331072 56021 FZRANO
PAIW 200204Z AUTO 33026G29KT 9SM SCT011 BKN036 OVC060 M02/M07 A2940 RMK AO2 PK WND 32029/0204 SNE01 P0000 FZRANO
PAIW 200156Z AUTO 33022KT 5SM -SN BR FEW007 BKN017 OVC042 M03/M06 A2940 RMK AO2 PK WND 36030/0130 UPB09E13SNE09B26 CIG 013V023 SLP959 P0000 T10331056 FZRANO
PAIW 200148Z AUTO 34019KT 2SM -SN BR SCT007 BKN015 OVC045 M03/M05 A2941 RMK AO2 PK WND 36030/0130 UPB09E13SNE09B26 P0000 FZRANO
PAIW 200136Z AUTO 35020G30KT 1SM -SN BR SCT007 SCT015 BKN027 M03/M06 A2942 RMK AO2 PK WND 36030/0130 UPB09E13SNE09B26 CIG 022V034 P0000 FZRANO
PAIW 200133Z AUTO 35025G30KT 1 3/4SM -SN FEW007 SCT018 BKN047 M03/M06 A2942 RMK AO2 PK WND 36030/0130 UPB09E13SNE09B26 P0000 FZRANO
PAIW 200056Z AUTO 33026G33KT 5SM -SN FEW017 SCT039 BKN050 M03/M06 A2942 RMK AO2 PK WND 33033/0054 UPB18E23SNE18B52 SLP965 P0000 T10281056 FZRANO
PAIW 200035Z AUTO 34019G25KT 10SM FEW021 SCT029 BKN037 M02/M07 A2943 RMK AO2 UPB18E23SNE18 P0000 FZRANO
PAIW 200008Z AUTO 36017G21KT 3SM -SN BR FEW008 BKN022 OVC033 M03/M04 A2944 RMK AO2 P0000 FZRANO
PAIW 192358Z AUTO 36012KT 2 1/2SM -SN BR SCT008 BKN018 OVC035 M03/M04 A2944 RMK AO2 VIS 1 3/4V5 CIG 014V023 P0000 FZRANO
PAIW 192352Z AUTO 35015KT 1 1/4SM -SN BR SCT006 BKN015 OVC035 M03/M04 A2944 RMK AO2 PK WND 34029/2337 VIS 3/4V3 SNE08B31 CIG 010V020 P0000 FZRANO
PAIW 192351Z AUTO 35014KT 1 1/4SM -SN BR SCT006 BKN013 OVC035 M03/M04 A2945 RMK AO2 PK WND 34029/2337 SNE08B31 P0000 FZRANO
PAIW 192345Z AUTO 34020G29KT 1 3/4SM -SN BR FEW010 BKN028 OVC048 M03/M04 A2945 RMK AO2 PK WND 34029/2337 SNE08B31 P0000 FZRANO
PAIW 192334Z AUTO 34024G28KT 6SM -SN BR FEW013 BKN027 BKN032 M02/M04 A2945 RMK AO2 PK WND 34028/2334 SNE08B31 P0000 FZRANO
PAIW 192318Z AUTO 36016KT 10SM FEW013 SCT028 SCT048 M02/M04 A2946 RMK AO2 SNE08 P0000 FZRANO
PAIW 192309Z AUTO 34018KT 9SM SCT011 BKN018 BKN023 M02/M04 A2946 RMK AO2 SNE08 P0000 FZRANO
PAIW 192256Z AUTO 34020G25KT 3SM -SN BR FEW006 BKN012 OVC023 M03/M04 A2946 RMK AO2 PK WND 34030/2226 SNB20 SLP977 P0001 T10281039 FZRANO
PAIW 192247Z AUTO 35011KT 1 1/4SM -SN BR FEW006 BKN012 OVC030 M03/M04 A2947 RMK AO2 PK WND 34030/2226 SNB20 P0000 FZRANO
PAIW 192241Z AUTO 36012KT 3/4SM -SN BR SCT006 BKN012 OVC043 M03/M04 A2947 RMK AO2 PK WND 34030/2226 SNB20 P0000 FZRANO
PAIW 192234Z AUTO 35019KT 3/4SM -SN BR SCT006 BKN033 OVC043 M03/M04 A2947 RMK AO2 PK WND 34030/2226 SNB20 P0000 FZRANO
PAIW 192230Z AUTO 34026KT 1 1/2SM -SN BR SCT008 BKN030 OVC046 M03/M04 A2946 RMK AO2 PK WND 34030/2226 VIS 1/2V5 SNB20 P0000 FZRANO
PAIW 192156Z AUTO 36011KT 9SM FEW005 SCT031 BKN043 M02/M04 A2947 RMK AO2 PK WND 32033/2123 UPB22E36SNB36E51 SLP981 P0000 T10221044 FZRANO
PAIW 192139Z AUTO 35017G30KT 3SM -SN BR FEW007 SCT025 BKN038 M02/M04 A2948 RMK AO2 PK WND 32033/2123 UPB22E36SNB36 P0000 FZRANO
PAIW 192134Z AUTO 35027KT 2 1/2SM UP FEW007 BKN027 BKN039 M02/M04 A2947 RMK AO2 PK WND 32033/2123 VIS 1 1/4V5 UPB22 CIG 019V035 P0000 FZRANO
PAIW 192056Z AUTO 34022KT 10SM SCT034 SCT041 BKN049 M01/M06 A2948 RMK AO2 PK WND 35027/2034 UPB37E47SNE25 SLP983 P0000 60000 T10111056 56011 FZRANO